Overview Statistics Trail Chart Weather Telemetry Raw packets
 

This is the latest recevied weather packets stored in our database for station/object IZ8GMP-13. If no packets are shown the sender has not sent any weather packets the latest 10 day(s).

<< 1 2 3 4 >>
Time Temp. Humidity Pressure Rain* Wind** Luminosity Snow
1788615231 32.22° C 42% 1018 hPa - - - -
1788614027 32.22° C 42% 1018.1 hPa - - - -
1788612824 32.22° C 40% 1018.3 hPa - - - -
1788611620 32.22° C 42% 1018.4 hPa - - - -
1788610417 31.67° C 41% 1018.5 hPa - - - -
1788609213 31.67° C 42% 1018.6 hPa - - - -
1788608010 31.67° C 41% 1018.8 hPa - - - -
1788606806 31.67° C 43% 1018.8 hPa - - - -
1788605603 31.11° C 44% 1018.8 hPa - - - -
1788603196 31.67° C 38% 1018.8 hPa - - - -
1788601992 31.11° C 41% 1018.8 hPa - - - -
1788600789 31.11° C 41% 1018.9 hPa - - - -
1788599585 30° C 50% 1018.7 hPa - - - -
1788598382 28.89° C 59% 1019 hPa - - - -
1788597178 28.33° C 65% 1018.9 hPa - - - -
1788595975 28.33° C 69% 1018.8 hPa - - - -
1788594772 27.78° C 70% 1018.7 hPa - - - -
1788593568 27.78° C 69% 1018.7 hPa - - - -
1788592365 27.78° C 69% 1018.6 hPa - - - -
1788591161 27.78° C 57% 1018.6 hPa - - - -
1788589958 28.33° C 53% 1018.6 hPa - - - -
1788587551 27.78° C 47% 1018.5 hPa - - - -
1788586347 27.78° C 48% 1018.4 hPa - - - -
1788585144 27.22° C 51% 1018.3 hPa - - - -
1788583940 27.22° C 48% 1018.2 hPa - - - -

* Rain since midnight (hover to see other rain measurements)
** Current wind speed in m/s (hover to see current wind gust speed)